Time;durP1;ratioP1;P1;durP2;ratioP2;P2;SDS_P1;SDS_P2;PMS_P1;PMS_P2;Temp;Humidity;BMP_temperature;BMP_pressure;BME280_temperature;BME280_humidity;BME280_pressure;Samples;Min_cycle;Max_cycle;Signal;HPM_P1;HPM_P2
2022/11/29 00:01:14;;;;;;;25.37;22.23;;;;;;;;;;5050156;28;20445;-75
2022/11/29 00:03:41;;;;;;;23.97;21.53;;;;;;;;;;5049785;28;20457;-75
2022/11/29 00:06:10;;;;;;;24.27;21.77;;;;;;;;;;5053197;28;20484;-74
2022/11/29 00:08:37;;;;;;;24.97;22.27;;;;;;;;;;5055387;28;20456;-75
2022/11/29 00:11:06;;;;;;;23.50;21.20;;;;;;;;;;5054789;28;20444;-76
2022/11/29 00:13:33;;;;;;;22.50;20.20;;;;;;;;;;5075748;28;20421;-76
2022/11/29 00:16:04;;;;;;;24.47;22.07;;;;;;;;;;5097839;28;20463;-76
2022/11/29 00:18:31;;;;;;;23.93;21.50;;;;;;;;;;5097636;28;20447;-75
2022/11/29 00:20:58;;;;;;;24.37;21.73;;;;;;;;;;5097086;28;20435;-77
2022/11/29 00:23:26;;;;;;;23.13;20.77;;;;;;;;;;5095140;28;20440;-75
2022/11/29 00:25:53;;;;;;;21.57;19.47;;;;;;;;;;5081863;28;20483;-75
2022/11/29 00:28:21;;;;;;;22.73;20.50;;;;;;;;;;5075313;28;20443;-75
2022/11/29 00:30:48;;;;;;;22.13;19.73;;;;;;;;;;5075117;28;20456;-75
2022/11/29 00:33:16;;;;;;;24.30;21.80;;;;;;;;;;5074239;28;20444;-75
2022/11/29 00:35:43;;;;;;;24.97;20.80;;;;;;;;;;5063775;28;20464;-75
2022/11/29 00:38:10;;;;;;;22.13;19.93;;;;;;;;;;5074146;28;20452;-75
2022/11/29 00:40:37;;;;;;;23.20;20.73;;;;;;;;;;5067303;28;20456;-77
2022/11/29 00:43:04;;;;;;;23.23;20.40;;;;;;;;;;5068297;28;20452;-75
2022/11/29 00:45:33;;;;;;;23.13;20.73;;;;;;;;;;5065582;28;20472;-75
2022/11/29 00:48:00;;;;;;;22.27;19.97;;;;;;;;;;5073489;28;21091;-77
2022/11/29 00:50:27;;;;;;;22.80;20.50;;;;;;;;;;5073284;28;20447;-75
2022/11/29 00:52:54;;;;;;;22.63;20.23;;;;;;;;;;5072621;28;20456;-76
2022/11/29 00:55:21;;;;;;;22.13;19.83;;;;;;;;;;5073199;28;21014;-76
2022/11/29 00:57:48;;;;;;;23.10;20.73;;;;;;;;;;5072990;28;21013;-76
2022/11/29 01:00:15;;;;;;;23.73;21.27;;;;;;;;;;5073197;28;21057;-76
2022/11/29 01:02:44;;;;;;;21.70;19.50;;;;;;;;;;5072806;28;20444;-76
2022/11/29 01:05:11;;;;;;;23.13;19.63;;;;;;;;;;5072948;28;20503;-79
2022/11/29 01:07:38;;;;;;;22.73;20.50;;;;;;;;;;5073287;28;20447;-75
2022/11/29 01:10:06;;;;;;;22.20;20.00;;;;;;;;;;5073058;28;20443;-75
2022/11/29 01:12:35;;;;;;;22.87;20.57;;;;;;;;;;5071010;28;20447;-74
2022/11/29 01:15:02;;;;;;;23.03;20.73;;;;;;;;;;5053188;28;20519;-75
2022/11/29 01:17:29;;;;;;;21.03;18.60;;;;;;;;;;5055770;28;20452;-76
2022/11/29 01:19:58;;;;;;;20.50;18.40;;;;;;;;;;5055064;28;21008;-76
2022/11/29 01:22:25;;;;;;;21.73;19.60;;;;;;;;;;5072520;28;20921;-76
2022/11/29 01:24:52;;;;;;;20.57;18.57;;;;;;;;;;5072435;28;20472;-75
2022/11/29 01:27:19;;;;;;;20.20;18.30;;;;;;;;;;5072941;28;20447;-75
2022/11/29 01:29:46;;;;;;;21.00;18.67;;;;;;;;;;5072985;28;20952;-75
2022/11/29 01:32:13;;;;;;;20.20;18.07;;;;;;;;;;5067388;28;20440;-75
2022/11/29 01:34:40;;;;;;;21.13;18.93;;;;;;;;;;5064386;28;20461;-76
2022/11/29 01:37:09;;;;;;;21.33;18.97;;;;;;;;;;5066056;28;20467;-75
2022/11/29 01:39:36;;;;;;;20.83;18.57;;;;;;;;;;5068681;28;20452;-75
2022/11/29 01:42:03;;;;;;;17.60;15.93;;;;;;;;;;5064281;28;21095;-75
2022/11/29 01:44:49;;;;;;;16.70;15.10;;;;;;;;;;5061314;28;20462;-76
2022/11/29 01:47:17;;;;;;;15.70;14.30;;;;;;;;;;5061385;28;20441;-75
2022/11/29 01:49:45;;;;;;;14.60;13.10;;;;;;;;;;5071228;28;20592;-75
2022/11/29 01:52:15;;;;;;;15.10;13.50;;;;;;;;;;5086470;28;20438;-75
2022/11/29 01:54:44;;;;;;;15.37;13.97;;;;;;;;;;5084774;28;20445;-76
2022/11/29 01:57:11;;;;;;;14.90;13.60;;;;;;;;;;5081674;28;20426;-75
2022/11/29 01:59:41;;;;;;;15.73;14.30;;;;;;;;;;5068626;28;20434;-77
2022/11/29 02:02:12;;;;;;;16.67;14.93;;;;;;;;;;5065583;28;20483;-76
2022/11/29 02:04:40;;;;;;;15.50;13.43;;;;;;;;;;5064248;28;20465;-77
2022/11/29 02:07:07;;;;;;;16.07;14.57;;;;;;;;;;5063115;28;20425;-76
2022/11/29 02:09:35;;;;;;;13.33;12.10;;;;;;;;;;5068375;28;21275;-76
2022/11/29 02:12:09;;;;;;;14.07;12.87;;;;;;;;;;5073100;28;20470;-76
2022/11/29 02:14:45;;;;;;;14.27;12.87;;;;;;;;;;5071370;28;20467;-75
2022/11/29 02:17:20;;;;;;;13.20;12.10;;;;;;;;;;5073038;28;20424;-75
2022/11/29 02:20:13;;;;;;;15.10;13.60;;;;;;;;;;5072930;28;20450;-76
2022/11/29 02:22:42;;;;;;;14.30;13.00;;;;;;;;;;5074553;28;20444;-76
2022/11/29 02:25:24;;;;;;;16.60;12.83;;;;;;;;;;5076192;28;20475;-76
2022/11/29 02:28:00;;;;;;;14.07;12.67;;;;;;;;;;5076636;28;20455;-76
2022/11/29 02:30:37;;;;;;;14.03;12.70;;;;;;;;;;5077686;28;20437;-75
2022/11/29 02:33:24;;;;;;;13.20;12.00;;;;;;;;;;5071772;28;20440;-75
2022/11/29 02:36:12;;;;;;;12.33;11.13;;;;;;;;;;5071374;28;20456;-76
2022/11/29 02:38:45;;;;;;;13.23;12.13;;;;;;;;;;5066420;28;20460;-76
2022/11/29 02:41:22;;;;;;;13.23;12.03;;;;;;;;;;5071687;28;20435;-75
2022/11/29 02:43:57;;;;;;;14.47;13.10;;;;;;;;;;5070705;28;20436;-76
2022/11/29 02:46:33;;;;;;;12.60;11.40;;;;;;;;;;5070986;28;21138;-76
2022/11/29 02:49:08;;;;;;;15.40;13.90;;;;;;;;;;5071754;28;20425;-76
2022/11/29 02:51:39;;;;;;;32.43;29.07;;;;;;;;;;5071773;28;20446;-75
2022/11/29 02:54:10;;;;;;;21.33;19.23;;;;;;;;;;5071417;28;20466;-75
2022/11/29 02:56:41;;;;;;;16.07;14.30;;;;;;;;;;5071476;28;20446;-75
2022/11/29 02:59:13;;;;;;;15.40;14.00;;;;;;;;;;5072308;28;20448;-75
2022/11/29 03:01:45;;;;;;;16.20;14.70;;;;;;;;;;5071876;28;20448;-74
2022/11/29 03:04:16;;;;;;;15.83;14.33;;;;;;;;;;5070257;28;20472;-74
2022/11/29 03:06:46;;;;;;;15.87;14.40;;;;;;;;;;5071018;28;20507;-74
2022/11/29 03:09:17;;;;;;;15.77;14.37;;;;;;;;;;5070968;28;20433;-74
2022/11/29 03:11:48;;;;;;;16.37;14.87;;;;;;;;;;5069681;28;20456;-75
2022/11/29 03:14:17;;;;;;;17.07;15.57;;;;;;;;;;5055487;28;20584;-75
2022/11/29 03:16:47;;;;;;;16.50;14.90;;;;;;;;;;5050751;28;20445;-75
2022/11/29 03:19:27;;;;;;;17.77;16.17;;;;;;;;;;5050639;28;20803;-75
2022/11/29 03:22:00;;;;;;;19.27;17.40;;;;;;;;;;5050697;28;20445;-74
2022/11/29 03:24:32;;;;;;;18.93;17.10;;;;;;;;;;5049977;28;20461;-75
2022/11/29 03:27:01;;;;;;;20.80;18.70;;;;;;;;;;5050513;28;20858;-75
2022/11/29 03:29:33;;;;;;;21.10;18.60;;;;;;;;;;5050410;28;20437;-74
2022/11/29 03:32:02;;;;;;;19.30;17.40;;;;;;;;;;5050480;28;20933;-74
2022/11/29 03:34:37;;;;;;;20.60;18.40;;;;;;;;;;5049662;28;20469;-75
2022/11/29 03:37:08;;;;;;;20.00;18.10;;;;;;;;;;5051116;28;20437;-76
2022/11/29 03:39:39;;;;;;;20.47;18.37;;;;;;;;;;5050049;28;20479;-76
2022/11/29 03:42:08;;;;;;;19.77;17.87;;;;;;;;;;5050698;28;20463;-74
2022/11/29 03:44:36;;;;;;;21.53;19.30;;;;;;;;;;5049396;28;20468;-75
2022/11/29 03:47:07;;;;;;;21.90;19.60;;;;;;;;;;5049741;28;21034;-75
2022/11/29 03:49:38;;;;;;;19.63;17.83;;;;;;;;;;5050280;28;20451;-73
2022/11/29 03:52:10;;;;;;;21.20;19.20;;;;;;;;;;5050156;28;20471;-75
2022/11/29 03:54:44;;;;;;;19.80;17.70;;;;;;;;;;5049332;28;20473;-75
2022/11/29 03:57:11;;;;;;;20.50;18.00;;;;;;;;;;5050174;28;20453;-74
2022/11/29 03:59:45;;;;;;;19.23;17.33;;;;;;;;;;5050284;28;20480;-74
2022/11/29 04:02:34;;;;;;;18.00;16.30;;;;;;;;;;5050287;28;20451;-74
2022/11/29 04:05:22;;;;;;;21.53;19.00;;;;;;;;;;5050302;28;20483;-77
2022/11/29 04:08:00;;;;;;;19.30;17.60;;;;;;;;;;5050061;28;20484;-76
2022/11/29 04:10:38;;;;;;;20.10;18.07;;;;;;;;;;5049830;28;20453;-75
2022/11/29 04:13:34;;;;;;;18.43;16.63;;;;;;;;;;5052834;28;20447;-75
2022/11/29 04:16:19;;;;;;;19.30;17.37;;;;;;;;;;5070280;28;20465;-74
2022/11/29 04:19:02;;;;;;;18.30;16.60;;;;;;;;;;5070128;28;20974;-75
2022/11/29 04:21:42;;;;;;;16.90;15.30;;;;;;;;;;5069840;28;20447;-76
2022/11/29 04:24:28;;;;;;;17.70;15.90;;;;;;;;;;5069307;28;20464;-75
2022/11/29 04:27:10;;;;;;;16.40;14.80;;;;;;;;;;5070101;28;20661;-75
2022/11/29 04:29:48;;;;;;;16.43;14.87;;;;;;;;;;5070098;28;20494;-75
2022/11/29 04:32:24;;;;;;;16.20;14.80;;;;;;;;;;5069675;28;20437;-74
2022/11/29 04:34:57;;;;;;;17.27;15.50;;;;;;;;;;5069498;28;20454;-75
2022/11/29 04:37:32;;;;;;;15.40;14.00;;;;;;;;;;5069600;28;20433;-74
2022/11/29 04:40:09;;;;;;;16.37;14.97;;;;;;;;;;5069589;28;20444;-75
2022/11/29 04:42:45;;;;;;;15.70;14.30;;;;;;;;;;5069342;28;20463;-75
2022/11/29 04:45:26;;;;;;;14.97;13.63;;;;;;;;;;5070624;28;20478;-75
2022/11/29 04:47:59;;;;;;;14.10;12.60;;;;;;;;;;5069940;28;20439;-75
2022/11/29 04:50:40;;;;;;;14.50;13.10;;;;;;;;;;5070507;28;20451;-75
2022/11/29 04:53:22;;;;;;;15.10;13.60;;;;;;;;;;5072321;28;20457;-75
2022/11/29 04:55:53;;;;;;;16.00;14.40;;;;;;;;;;5073764;28;20471;-74
2022/11/29 04:58:23;;;;;;;14.00;12.60;;;;;;;;;;5073810;28;20500;-74
2022/11/29 05:00:56;;;;;;;9.77;8.97;;;;;;;;;;5073501;28;20443;-76
2022/11/29 05:03:29;;;;;;;9.40;8.60;;;;;;;;;;5073050;28;20448;-75
2022/11/29 05:05:59;;;;;;;10.30;9.20;;;;;;;;;;5073523;28;21132;-75
2022/11/29 05:08:33;;;;;;;10.67;9.67;;;;;;;;;;5073281;28;20487;-75
2022/11/29 05:11:01;;;;;;;10.60;9.53;;;;;;;;;;5073230;28;20451;-75
2022/11/29 05:13:34;;;;;;;14.30;13.07;;;;;;;;;;5066195;28;20436;-75
2022/11/29 05:16:16;;;;;;;9.70;8.90;;;;;;;;;;5052647;28;20461;-75
2022/11/29 05:19:03;;;;;;;9.80;8.97;;;;;;;;;;5052999;28;20448;-75
2022/11/29 05:21:36;;;;;;;9.97;7.13;;;;;;;;;;5052827;28;20464;-75
2022/11/29 05:24:09;;;;;;;7.97;7.37;;;;;;;;;;5052085;28;20477;-75
2022/11/29 05:26:42;;;;;;;7.87;7.23;;;;;;;;;;5052645;28;20491;-74
2022/11/29 05:29:11;;;;;;;7.87;7.27;;;;;;;;;;5052633;28;20463;-74
2022/11/29 05:31:47;;;;;;;7.33;6.83;;;;;;;;;;5052946;28;20452;-75
2022/11/29 05:34:32;;;;;;;7.37;6.77;;;;;;;;;;5052177;28;20463;-75
2022/11/29 05:37:03;;;;;;;7.93;7.13;;;;;;;;;;5061974;28;20445;-76
2022/11/29 05:39:34;;;;;;;7.27;6.57;;;;;;;;;;5077678;28;20430;-77
2022/11/29 05:42:09;;;;;;;7.03;6.43;;;;;;;;;;5076850;28;20449;-76
2022/11/29 05:44:38;;;;;;;6.93;6.33;;;;;;;;;;5076716;28;20438;-76
2022/11/29 05:47:08;;;;;;;7.17;6.17;;;;;;;;;;5055958;28;20477;-74
2022/11/29 05:49:39;;;;;;;8.27;7.47;;;;;;;;;;5053472;28;20818;-75
2022/11/29 05:52:23;;;;;;;7.53;6.83;;;;;;;;;;5053552;28;20426;-75
2022/11/29 05:54:54;;;;;;;7.90;7.10;;;;;;;;;;5052529;28;20531;-76
2022/11/29 05:57:25;;;;;;;8.03;7.27;;;;;;;;;;5053047;28;20448;-75
2022/11/29 05:59:54;;;;;;;6.47;5.90;;;;;;;;;;5052316;28;20449;-75
2022/11/29 06:02:29;;;;;;;6.43;5.93;;;;;;;;;;5051558;28;20936;-76
2022/11/29 06:05:02;;;;;;;6.90;6.40;;;;;;;;;;5052430;28;20488;-74
2022/11/29 06:07:33;;;;;;;7.50;6.90;;;;;;;;;;5052737;28;20539;-76
2022/11/29 06:10:02;;;;;;;6.80;6.20;;;;;;;;;;5052399;28;20957;-77
2022/11/29 06:12:33;;;;;;;7.30;6.60;;;;;;;;;;5052046;28;20477;-76
2022/11/29 06:15:28;;;;;;;5.80;5.30;;;;;;;;;;5071203;28;20536;-75
2022/11/29 06:18:05;;;;;;;7.77;6.97;;;;;;;;;;5036724;28;20490;-76
2022/11/29 06:20:50;;;;;;;7.23;6.60;;;;;;;;;;5082311;28;20448;-75
2022/11/29 06:23:23;;;;;;;7.00;6.40;;;;;;;;;;5085787;28;20928;-75
2022/11/29 06:26:01;;;;;;;7.13;6.47;;;;;;;;;;5086740;28;20532;-75
2022/11/29 06:28:33;;;;;;;7.47;6.77;;;;;;;;;;5085220;28;20445;-75
2022/11/29 06:31:02;;;;;;;6.80;6.20;;;;;;;;;;5081159;28;20445;-75
2022/11/29 06:33:35;;;;;;;7.23;6.63;;;;;;;;;;5081136;28;20449;-75
2022/11/29 06:36:09;;;;;;;7.73;6.30;;;;;;;;;;5072453;28;20958;-75
2022/11/29 06:38:37;;;;;;;7.37;6.77;;;;;;;;;;5071234;28;20458;-78
2022/11/29 06:41:04;;;;;;;7.20;6.70;;;;;;;;;;5071301;28;20440;-75
2022/11/29 06:43:32;;;;;;;8.90;7.47;;;;;;;;;;5070220;28;20804;-76
2022/11/29 06:46:01;;;;;;;8.20;7.57;;;;;;;;;;5071448;28;20464;-75
2022/11/29 06:48:31;;;;;;;7.90;7.30;;;;;;;;;;5071124;28;20449;-75
2022/11/29 06:51:04;;;;;;;7.37;6.60;;;;;;;;;;5073546;28;20454;-75
2022/11/29 06:53:37;;;;;;;8.30;7.60;;;;;;;;;;5081485;28;20502;-75
2022/11/29 06:56:08;;;;;;;7.70;7.00;;;;;;;;;;5074932;28;20992;-75
2022/11/29 06:58:41;;;;;;;9.50;8.60;;;;;;;;;;5077463;28;20444;-76
2022/11/29 07:01:15;;;;;;;8.37;7.57;;;;;;;;;;5079154;28;20441;-74
2022/11/29 07:03:56;;;;;;;9.10;8.20;;;;;;;;;;5077240;28;20899;-76
2022/11/29 07:06:26;;;;;;;9.70;8.90;;;;;;;;;;5070781;28;20486;-75
2022/11/29 07:08:54;;;;;;;8.90;8.10;;;;;;;;;;5070381;28;20936;-76
2022/11/29 07:11:21;;;;;;;15.83;9.73;;;;;;;;;;5071034;28;20443;-75
2022/11/29 07:13:49;;;;;;;8.60;7.90;;;;;;;;;;5061086;28;20449;-75
2022/11/29 07:16:22;;;;;;;9.47;8.60;;;;;;;;;;5053354;28;20790;-75
2022/11/29 07:18:55;;;;;;;9.57;8.67;;;;;;;;;;5054590;28;20445;-76
2022/11/29 07:21:26;;;;;;;9.77;8.80;;;;;;;;;;5053101;28;20444;-76
2022/11/29 07:23:58;;;;;;;10.13;9.17;;;;;;;;;;5050835;28;20445;-74
2022/11/29 07:26:28;;;;;;;10.03;9.10;;;;;;;;;;5053053;28;20808;-75
2022/11/29 07:29:03;;;;;;;9.97;9.07;;;;;;;;;;5054832;28;20448;-76
2022/11/29 07:31:35;;;;;;;8.70;7.93;;;;;;;;;;5054914;28;20975;-77
2022/11/29 07:34:06;;;;;;;8.70;7.80;;;;;;;;;;5050969;28;20965;-77
2022/11/29 07:36:38;;;;;;;9.30;8.50;;;;;;;;;;5051836;28;20452;-75
2022/11/29 07:39:14;;;;;;;8.67;7.93;;;;;;;;;;5051614;28;20449;-74
2022/11/29 07:41:44;;;;;;;9.20;8.27;;;;;;;;;;5050438;28;20436;-74
2022/11/29 07:44:15;;;;;;;8.50;7.80;;;;;;;;;;5050181;28;20466;-75
2022/11/29 07:46:42;;;;;;;8.93;8.13;;;;;;;;;;5050315;28;20879;-76
2022/11/29 07:49:10;;;;;;;8.10;7.30;;;;;;;;;;5051386;28;20446;-76
2022/11/29 07:51:37;;;;;;;8.33;7.63;;;;;;;;;;5051858;28;20445;-75
2022/11/29 07:54:05;;;;;;;7.70;7.10;;;;;;;;;;5054453;28;20499;-75
2022/11/29 07:56:33;;;;;;;8.53;7.73;;;;;;;;;;5051203;28;20463;-75
2022/11/29 07:59:00;;;;;;;7.07;6.47;;;;;;;;;;5051155;28;20452;-75
2022/11/29 08:01:27;;;;;;;8.20;7.50;;;;;;;;;;5050349;28;20438;-76
2022/11/29 08:03:54;;;;;;;9.50;8.60;;;;;;;;;;5049676;28;20448;-76
2022/11/29 08:06:25;;;;;;;8.67;7.77;;;;;;;;;;5049889;28;20464;-74
2022/11/29 08:08:52;;;;;;;7.93;7.20;;;;;;;;;;5049828;28;20443;-76
2022/11/29 08:11:19;;;;;;;7.67;6.87;;;;;;;;;;5050360;28;20452;-76
2022/11/29 08:13:47;;;;;;;7.60;7.00;;;;;;;;;;5058235;28;20440;-75
2022/11/29 08:16:16;;;;;;;7.50;6.80;;;;;;;;;;5070126;28;20815;-76
2022/11/29 08:18:43;;;;;;;7.90;7.20;;;;;;;;;;5070487;28;20437;-76
2022/11/29 08:21:11;;;;;;;8.30;7.63;;;;;;;;;;5069901;28;20441;-76
2022/11/29 08:23:38;;;;;;;10.63;9.63;;;;;;;;;;5069405;28;20455;-75
2022/11/29 08:26:05;;;;;;;9.07;8.17;;;;;;;;;;5071402;28;20464;-75
2022/11/29 08:28:32;;;;;;;9.20;8.37;;;;;;;;;;5074104;28;20482;-76
2022/11/29 08:31:04;;;;;;;7.77;7.13;;;;;;;;;;5074934;28;20936;-76
2022/11/29 08:33:31;;;;;;;8.47;7.77;;;;;;;;;;5074298;28;20445;-77
2022/11/29 08:36:04;;;;;;;9.30;8.53;;;;;;;;;;5074627;28;20510;-75
2022/11/29 08:38:31;;;;;;;9.97;8.80;;;;;;;;;;5073639;28;20473;-76
2022/11/29 08:41:00;;;;;;;8.57;7.87;;;;;;;;;;5073778;28;20959;-75
2022/11/29 08:43:27;;;;;;;8.13;7.43;;;;;;;;;;5073321;28;20955;-75
2022/11/29 08:45:54;;;;;;;8.43;7.67;;;;;;;;;;5074103;28;20465;-76
2022/11/29 08:48:23;;;;;;;7.13;6.53;;;;;;;;;;5073788;28;20503;-76
2022/11/29 08:50:50;;;;;;;8.17;7.37;;;;;;;;;;5074508;28;20445;-75
2022/11/29 08:56:02;;;;;;;7.33;6.60;;;;;;;;;;5074468;28;20439;-75
2022/11/29 08:58:29;;;;;;;7.93;7.13;;;;;;;;;;5074233;28;20477;-76
2022/11/29 09:00:56;;;;;;;7.80;7.20;;;;;;;;;;5074237;28;20441;-76
2022/11/29 09:06:11;;;;;;;7.70;7.00;;;;;;;;;;5073827;28;20462;-77
2022/11/29 09:08:38;;;;;;;8.40;7.60;;;;;;;;;;5074625;28;20476;-76
2022/11/29 09:11:07;;;;;;;8.00;7.30;;;;;;;;;;5074516;28;20952;-75
2022/11/29 09:13:35;;;;;;;7.73;7.07;;;;;;;;;;5065816;28;20543;-75
2022/11/29 09:16:06;;;;;;;8.17;7.40;;;;;;;;;;5053964;28;20469;-76
2022/11/29 09:18:35;;;;;;;8.77;7.87;;;;;;;;;;5054150;28;20444;-74
2022/11/29 09:21:02;;;;;;;6.90;6.30;;;;;;;;;;5052964;28;20441;-76
2022/11/29 09:23:29;;;;;;;8.33;7.53;;;;;;;;;;5052314;28;20452;-75
2022/11/29 09:25:56;;;;;;;8.60;7.80;;;;;;;;;;5052529;28;20480;-74
2022/11/29 09:28:23;;;;;;;9.10;8.20;;;;;;;;;;5052592;28;20473;-75
2022/11/29 09:30:50;;;;;;;9.93;8.93;;;;;;;;;;5052983;28;20445;-75
2022/11/29 09:33:17;;;;;;;9.83;8.93;;;;;;;;;;5052627;28;20469;-76
2022/11/29 09:35:46;;;;;;;9.37;8.40;;;;;;;;;;5052551;28;20462;-75
2022/11/29 09:38:13;;;;;;;9.57;8.67;;;;;;;;;;5053682;28;20455;-77
2022/11/29 09:40:43;;;;;;;10.63;8.80;;;;;;;;;;5052861;28;20448;-77
2022/11/29 09:43:17;;;;;;;10.00;9.00;;;;;;;;;;5052435;28;20445;-75
2022/11/29 09:45:47;;;;;;;13.03;11.53;;;;;;;;;;5052404;28;20851;-75
2022/11/29 09:48:29;;;;;;;11.10;10.00;;;;;;;;;;5052798;28;20515;-75
2022/11/29 09:51:04;;;;;;;13.43;10.43;;;;;;;;;;5052050;28;20521;-75
2022/11/29 09:53:36;;;;;;;11.80;9.80;;;;;;;;;;5052178;28;20447;-77
2022/11/29 09:56:12;;;;;;;12.90;11.40;;;;;;;;;;5054042;28;20498;-76
2022/11/29 09:58:42;;;;;;;12.33;11.13;;;;;;;;;;5066239;28;20437;-76
2022/11/29 10:01:11;;;;;;;12.57;10.80;;;;;;;;;;5067236;28;20439;-75
2022/11/29 10:03:40;;;;;;;13.67;11.90;;;;;;;;;;5066827;28;20450;-75
2022/11/29 10:06:12;;;;;;;15.70;12.80;;;;;;;;;;5076779;28;20436;-76
2022/11/29 10:08:42;;;;;;;23.50;15.30;;;;;;;;;;5076256;28;20462;-76
2022/11/29 10:11:14;;;;;;;22.00;15.33;;;;;;;;;;5074759;28;20426;-77
2022/11/29 10:13:44;;;;;;;22.90;16.80;;;;;;;;;;5084488;28;20449;-77
2022/11/29 10:16:13;;;;;;;20.77;16.23;;;;;;;;;;5078197;28;20475;-76
2022/11/29 10:18:44;;;;;;;24.10;16.73;;;;;;;;;;5073014;28;20941;-77
2022/11/29 10:21:14;;;;;;;22.90;18.67;;;;;;;;;;5072810;28;20445;-75
2022/11/29 10:23:44;;;;;;;20.93;16.00;;;;;;;;;;5072698;28;20440;-75
2022/11/29 10:26:12;;;;;;;22.60;18.20;;;;;;;;;;5073057;28;20451;-77
2022/11/29 10:28:43;;;;;;;22.60;17.50;;;;;;;;;;5073592;28;20567;-77
2022/11/29 10:31:15;;;;;;;22.80;19.37;;;;;;;;;;5072726;28;20520;-76
2022/11/29 10:33:42;;;;;;;18.27;16.33;;;;;;;;;;5071543;28;20794;-75
2022/11/29 10:36:15;;;;;;;19.47;16.33;;;;;;;;;;5071939;28;20452;-76
2022/11/29 10:38:46;;;;;;;17.90;15.60;;;;;;;;;;5071439;28;20445;-75
2022/11/29 10:41:16;;;;;;;18.10;15.67;;;;;;;;;;5071883;28;20444;-76
2022/11/29 10:43:43;;;;;;;17.10;15.30;;;;;;;;;;5071833;28;20836;-76
2022/11/29 10:46:13;;;;;;;18.00;16.10;;;;;;;;;;5072203;28;20448;-75
2022/11/29 10:48:40;;;;;;;17.80;15.00;;;;;;;;;;5071460;28;20870;-77
2022/11/29 10:51:15;;;;;;;16.77;12.30;;;;;;;;;;5072296;28;20441;-76
2022/11/29 10:53:42;;;;;;;15.70;13.50;;;;;;;;;;5070014;28;20448;-74
2022/11/29 10:56:16;;;;;;;16.03;14.30;;;;;;;;;;5071497;28;20456;-75
2022/11/29 10:58:53;;;;;;;15.23;13.20;;;;;;;;;;5071314;28;20443;-75
2022/11/29 11:01:20;;;;;;;13.77;12.33;;;;;;;;;;5071055;28;20813;-75
2022/11/29 11:03:51;;;;;;;15.40;12.10;;;;;;;;;;5070591;28;20441;-75
2022/11/29 11:06:19;;;;;;;14.30;11.87;;;;;;;;;;5070993;28;20458;-76
2022/11/29 11:08:47;;;;;;;16.80;14.30;;;;;;;;;;5071155;28;20877;-77
2022/11/29 11:11:23;;;;;;;14.50;12.70;;;;;;;;;;5070804;28;20459;-75
2022/11/29 11:13:58;;;;;;;19.27;13.97;;;;;;;;;;5060987;28;20443;-76
2022/11/29 11:16:25;;;;;;;16.30;13.53;;;;;;;;;;5052628;28;20448;-76
2022/11/29 11:18:52;;;;;;;16.50;14.13;;;;;;;;;;5052827;28;20885;-75
2022/11/29 11:21:21;;;;;;;15.37;13.73;;;;;;;;;;5053356;28;20446;-75
2022/11/29 11:23:52;;;;;;;17.03;15.17;;;;;;;;;;5052013;28;21025;-75
2022/11/29 11:26:21;;;;;;;17.40;13.40;;;;;;;;;;5053244;28;20959;-75
2022/11/29 11:28:50;;;;;;;16.43;14.13;;;;;;;;;;5052360;28;20746;-77
2022/11/29 11:31:26;;;;;;;16.50;14.73;;;;;;;;;;5053208;28;20443;-76
2022/11/29 11:33:53;;;;;;;16.53;14.83;;;;;;;;;;5051677;28;20944;-78
2022/11/29 11:36:23;;;;;;;15.63;14.03;;;;;;;;;;5053374;28;20449;-75
2022/11/29 11:38:51;;;;;;;15.30;13.00;;;;;;;;;;5067530;28;20432;-75
2022/11/29 11:42:35;;;;;;;15.77;13.03;;;;;;;;;;5067674;28;20453;-74
2022/11/29 11:44:21;;;;;;;15.10;13.33;;;;;;;;;;5067091;28;20458;-76
2022/11/29 11:46:49;;;;;;;16.17;13.70;;;;;;;;;;5083164;28;20505;-75
2022/11/29 11:49:24;;;;;;;15.10;13.50;;;;;;;;;;5083556;28;20484;-76
2022/11/29 11:51:52;;;;;;;15.90;14.30;;;;;;;;;;5074996;28;20449;-76
2022/11/29 11:54:19;;;;;;;16.40;14.73;;;;;;;;;;5073899;28;20974;-76
2022/11/29 11:56:47;;;;;;;17.30;15.53;;;;;;;;;;5073648;28;20447;-76
2022/11/29 11:59:19;;;;;;;16.93;15.20;;;;;;;;;;5074154;28;20436;-75
2022/11/29 12:01:46;;;;;;;17.00;15.30;;;;;;;;;;5076841;28;20474;-76
2022/11/29 12:04:16;;;;;;;16.83;14.83;;;;;;;;;;5079034;28;20525;-76
2022/11/29 12:06:49;;;;;;;18.37;15.73;;;;;;;;;;5071636;28;20453;-75
2022/11/29 12:09:20;;;;;;;15.20;13.77;;;;;;;;;;5071537;28;20476;-76
2022/11/29 12:11:51;;;;;;;15.30;13.90;;;;;;;;;;5074623;28;20431;-76
2022/11/29 12:14:23;;;;;;;15.07;13.57;;;;;;;;;;5060749;28;20461;-76
2022/11/29 12:16:52;;;;;;;13.70;12.50;;;;;;;;;;5053984;28;20442;-76
2022/11/29 12:19:21;;;;;;;15.20;13.70;;;;;;;;;;5054208;28;20455;-76
2022/11/29 12:21:51;;;;;;;12.57;11.57;;;;;;;;;;5053938;28;20498;-76
2022/11/29 12:24:22;;;;;;;11.97;10.87;;;;;;;;;;5053426;28;20502;-76
2022/11/29 12:26:50;;;;;;;13.27;12.07;;;;;;;;;;5054488;28;20430;-76
2022/11/29 12:29:18;;;;;;;12.40;11.20;;;;;;;;;;5054337;28;20483;-75
2022/11/29 12:31:53;;;;;;;14.17;12.93;;;;;;;;;;5057055;28;20443;-76
2022/11/29 12:34:25;;;;;;;12.57;11.47;;;;;;;;;;5079444;28;20455;-77
2022/11/29 12:36:55;;;;;;;13.43;12.33;;;;;;;;;;5080120;28;20503;-74
2022/11/29 12:39:30;;;;;;;12.97;11.77;;;;;;;;;;5079411;28;20453;-76
2022/11/29 12:42:03;;;;;;;13.07;11.87;;;;;;;;;;5078119;28;20450;-77
2022/11/29 12:44:38;;;;;;;13.03;11.93;;;;;;;;;;5056307;28;20467;-75
2022/11/29 12:47:09;;;;;;;13.10;12.00;;;;;;;;;;5053765;28;20468;-75
2022/11/29 12:49:43;;;;;;;13.67;12.50;;;;;;;;;;5053481;28;20481;-77
2022/11/29 12:52:14;;;;;;;13.13;12.03;;;;;;;;;;5057042;28;20436;-77
2022/11/29 12:54:49;;;;;;;15.23;13.73;;;;;;;;;;5071970;28;20457;-77
2022/11/29 12:57:22;;;;;;;13.80;12.63;;;;;;;;;;5073837;28;20428;-75
2022/11/29 12:59:55;;;;;;;13.73;12.53;;;;;;;;;;5073749;28;20817;-77
2022/11/29 13:02:26;;;;;;;14.20;13.00;;;;;;;;;;5073367;28;20990;-76
2022/11/29 13:04:55;;;;;;;13.80;12.67;;;;;;;;;;5072198;28;20476;-76
2022/11/29 13:07:27;;;;;;;13.30;12.10;;;;;;;;;;5073314;28;20432;-75
2022/11/29 13:10:01;;;;;;;13.43;12.33;;;;;;;;;;5073360;28;20467;-76
2022/11/29 13:12:34;;;;;;;14.23;13.00;;;;;;;;;;5072710;28;20427;-77
2022/11/29 13:15:03;;;;;;;14.40;13.00;;;;;;;;;;5073661;28;20975;-75
2022/11/29 13:17:34;;;;;;;13.90;12.60;;;;;;;;;;5073104;28;20965;-76
2022/11/29 13:20:03;;;;;;;13.50;12.30;;;;;;;;;;5074741;28;20429;-78
2022/11/29 13:22:35;;;;;;;13.30;12.10;;;;;;;;;;5077137;28;20445;-78
2022/11/29 13:25:06;;;;;;;13.70;12.50;;;;;;;;;;5077113;28;20471;-75
2022/11/29 13:27:37;;;;;;;13.40;12.03;;;;;;;;;;5073090;28;20448;-77
2022/11/29 13:30:04;;;;;;;13.60;12.33;;;;;;;;;;5073203;28;20472;-77
2022/11/29 13:32:36;;;;;;;13.23;12.10;;;;;;;;;;5072491;28;20828;-77
2022/11/29 13:35:06;;;;;;;12.27;11.27;;;;;;;;;;5080187;28;20475;-76
2022/11/29 13:37:36;;;;;;;14.00;12.90;;;;;;;;;;5081662;28;20904;-77
2022/11/29 13:40:11;;;;;;;12.00;11.00;;;;;;;;;;5079215;28;20438;-75
2022/11/29 13:42:45;;;;;;;11.07;10.17;;;;;;;;;;5075803;28;20456;-76
2022/11/29 13:45:18;;;;;;;10.57;9.80;;;;;;;;;;5074988;28;20507;-77
2022/11/29 13:47:49;;;;;;;11.50;10.50;;;;;;;;;;5072872;28;20513;-76
2022/11/29 13:50:31;;;;;;;11.27;10.33;;;;;;;;;;5073440;28;20501;-77
2022/11/29 13:53:03;;;;;;;12.27;11.17;;;;;;;;;;5071857;28;20455;-78
2022/11/29 13:55:32;;;;;;;11.00;10.00;;;;;;;;;;5072032;28;20456;-76
2022/11/29 13:58:04;;;;;;;12.10;11.00;;;;;;;;;;5072429;28;20494;-77
2022/11/29 14:00:32;;;;;;;13.20;12.10;;;;;;;;;;5072475;28;20444;-76
2022/11/29 14:03:14;;;;;;;12.50;11.30;;;;;;;;;;5071558;28;20444;-77
2022/11/29 14:05:41;;;;;;;12.73;11.73;;;;;;;;;;5071798;28;20480;-76
2022/11/29 14:08:25;;;;;;;12.60;11.50;;;;;;;;;;5070915;28;20458;-76
2022/11/29 14:10:52;;;;;;;12.70;11.60;;;;;;;;;;5072453;28;20494;-76
2022/11/29 14:13:23;;;;;;;12.57;11.57;;;;;;;;;;5071676;28;20444;-77
2022/11/29 14:15:55;;;;;;;12.80;11.43;;;;;;;;;;5071973;28;20816;-76
2022/11/29 14:18:40;;;;;;;12.23;11.30;;;;;;;;;;5072342;28;20447;-77
2022/11/29 14:21:07;;;;;;;12.40;11.30;;;;;;;;;;5072112;28;20441;-76
2022/11/29 14:23:40;;;;;;;13.43;12.27;;;;;;;;;;5070611;28;20476;-76
2022/11/29 14:26:25;;;;;;;12.63;11.50;;;;;;;;;;5072323;28;20469;-78
2022/11/29 14:28:54;;;;;;;11.87;10.87;;;;;;;;;;5071760;28;20999;-76
2022/11/29 14:31:39;;;;;;;13.67;12.27;;;;;;;;;;5071867;28;20454;-78
2022/11/29 14:34:09;;;;;;;11.57;10.57;;;;;;;;;;5070002;28;20553;-77
2022/11/29 14:36:44;;;;;;;12.10;11.10;;;;;;;;;;5071817;28;20447;-77
2022/11/29 14:39:24;;;;;;;11.50;10.30;;;;;;;;;;5071663;28;20793;-75
2022/11/29 14:41:56;;;;;;;11.47;10.50;;;;;;;;;;5071814;28;20476;-75
2022/11/29 14:44:26;;;;;;;12.00;10.80;;;;;;;;;;5071510;28;20468;-76
2022/11/29 14:47:00;;;;;;;11.53;10.60;;;;;;;;;;5071297;28;20784;-75
2022/11/29 14:49:29;;;;;;;11.60;10.60;;;;;;;;;;5071214;28;20503;-77
2022/11/29 14:52:06;;;;;;;12.30;11.20;;;;;;;;;;5071132;28;21027;-77
2022/11/29 14:54:34;;;;;;;11.77;10.73;;;;;;;;;;5070978;28;20506;-76